sensor_id;sensor_type;location;lat;lon;timestamp;P1;durP1;ratioP1;P2;durP2;ratioP2
15526;SDS011;7865;50.918;4.510;2023-01-23T00:05:01;37.97;;;19.43;;
15526;SDS011;7865;50.918;4.510;2023-01-23T00:10:03;39.03;;;18.37;;
15526;SDS011;7865;50.918;4.510;2023-01-23T00:15:06;34.33;;;17.47;;
15526;SDS011;7865;50.918;4.510;2023-01-23T00:20:09;39.90;;;18.63;;
15526;SDS011;7865;50.918;4.510;2023-01-23T00:25:11;43.90;;;18.00;;
15526;SDS011;7865;50.918;4.510;2023-01-23T00:30:13;39.23;;;18.67;;
15526;SDS011;7865;50.918;4.510;2023-01-23T00:35:16;48.43;;;19.47;;
15526;SDS011;7865;50.918;4.510;2023-01-23T00:40:18;47.13;;;19.27;;
15526;SDS011;7865;50.918;4.510;2023-01-23T00:45:20;36.07;;;17.10;;
15526;SDS011;7865;50.918;4.510;2023-01-23T00:50:22;46.07;;;19.60;;
15526;SDS011;7865;50.918;4.510;2023-01-23T00:55:24;39.53;;;18.80;;
15526;SDS011;7865;50.918;4.510;2023-01-23T01:00:26;42.40;;;18.03;;
15526;SDS011;7865;50.918;4.510;2023-01-23T01:05:30;44.03;;;20.27;;
15526;SDS011;7865;50.918;4.510;2023-01-23T01:10:31;44.43;;;19.87;;
15526;SDS011;7865;50.918;4.510;2023-01-23T01:15:34;48.70;;;20.67;;
15526;SDS011;7865;50.918;4.510;2023-01-23T01:20:38;45.00;;;21.43;;
15526;SDS011;7865;50.918;4.510;2023-01-23T01:25:42;46.07;;;19.17;;
15526;SDS011;7865;50.918;4.510;2023-01-23T01:30:44;44.43;;;20.30;;
15526;SDS011;7865;50.918;4.510;2023-01-23T01:35:46;48.07;;;22.00;;
15526;SDS011;7865;50.918;4.510;2023-01-23T01:40:48;52.07;;;21.77;;
15526;SDS011;7865;50.918;4.510;2023-01-23T01:51:56;50.60;;;20.47;;
15526;SDS011;7865;50.918;4.510;2023-01-23T01:56:57;47.80;;;20.73;;
15526;SDS011;7865;50.918;4.510;2023-01-23T02:02:15;44.47;;;19.90;;
15526;SDS011;7865;50.918;4.510;2023-01-23T02:07:23;47.57;;;22.30;;
15526;SDS011;7865;50.918;4.510;2023-01-23T02:12:28;52.93;;;22.17;;
15526;SDS011;7865;50.918;4.510;2023-01-23T02:17:31;59.80;;;22.73;;
15526;SDS011;7865;50.918;4.510;2023-01-23T02:27:59;62.20;;;25.13;;
15526;SDS011;7865;50.918;4.510;2023-01-23T02:38:34;62.43;;;24.93;;
15526;SDS011;7865;50.918;4.510;2023-01-23T02:43:40;75.93;;;26.00;;
15526;SDS011;7865;50.918;4.510;2023-01-23T02:48:45;53.20;;;22.33;;
15526;SDS011;7865;50.918;4.510;2023-01-23T02:53:48;60.70;;;23.80;;
15526;SDS011;7865;50.918;4.510;2023-01-23T02:58:51;62.73;;;25.63;;
15526;SDS011;7865;50.918;4.510;2023-01-23T03:04:12;59.30;;;22.53;;
15526;SDS011;7865;50.918;4.510;2023-01-23T03:09:15;58.57;;;21.80;;
15526;SDS011;7865;50.918;4.510;2023-01-23T03:14:20;61.77;;;24.17;;
15526;SDS011;7865;50.918;4.510;2023-01-23T03:19:23;58.87;;;24.03;;
15526;SDS011;7865;50.918;4.510;2023-01-23T03:24:27;54.87;;;22.03;;
15526;SDS011;7865;50.918;4.510;2023-01-23T03:29:29;63.33;;;23.80;;
15526;SDS011;7865;50.918;4.510;2023-01-23T03:34:49;62.50;;;24.07;;
15526;SDS011;7865;50.918;4.510;2023-01-23T03:39:52;60.63;;;24.20;;
15526;SDS011;7865;50.918;4.510;2023-01-23T03:45:12;52.63;;;22.83;;
15526;SDS011;7865;50.918;4.510;2023-01-23T03:50:15;54.30;;;24.07;;
15526;SDS011;7865;50.918;4.510;2023-01-23T03:55:18;58.53;;;24.00;;
15526;SDS011;7865;50.918;4.510;2023-01-23T04:00:20;48.03;;;20.93;;
15526;SDS011;7865;50.918;4.510;2023-01-23T04:05:30;52.40;;;23.00;;
15526;SDS011;7865;50.918;4.510;2023-01-23T04:10:33;60.60;;;22.00;;
15526;SDS011;7865;50.918;4.510;2023-01-23T04:15:41;57.03;;;23.83;;
15526;SDS011;7865;50.918;4.510;2023-01-23T04:20:43;64.20;;;22.40;;
15526;SDS011;7865;50.918;4.510;2023-01-23T04:25:47;58.60;;;22.93;;
15526;SDS011;7865;50.918;4.510;2023-01-23T04:30:51;58.50;;;21.10;;
15526;SDS011;7865;50.918;4.510;2023-01-23T04:36:02;57.90;;;22.10;;
15526;SDS011;7865;50.918;4.510;2023-01-23T04:41:05;46.73;;;20.47;;
15526;SDS011;7865;50.918;4.510;2023-01-23T04:46:11;55.33;;;20.63;;
15526;SDS011;7865;50.918;4.510;2023-01-23T04:51:32;62.17;;;21.47;;
15526;SDS011;7865;50.918;4.510;2023-01-23T04:56:35;54.30;;;21.37;;
15526;SDS011;7865;50.918;4.510;2023-01-23T05:01:38;60.60;;;21.23;;
15526;SDS011;7865;50.918;4.510;2023-01-23T05:06:41;52.23;;;20.87;;
15526;SDS011;7865;50.918;4.510;2023-01-23T05:11:44;57.07;;;21.90;;
15526;SDS011;7865;50.918;4.510;2023-01-23T05:16:47;58.23;;;21.90;;
15526;SDS011;7865;50.918;4.510;2023-01-23T05:21:52;58.17;;;22.47;;
15526;SDS011;7865;50.918;4.510;2023-01-23T05:26:55;61.40;;;21.33;;
15526;SDS011;7865;50.918;4.510;2023-01-23T05:31:59;59.67;;;22.53;;
15526;SDS011;7865;50.918;4.510;2023-01-23T05:37:22;53.80;;;21.47;;
15526;SDS011;7865;50.918;4.510;2023-01-23T05:42:33;52.73;;;22.60;;
15526;SDS011;7865;50.918;4.510;2023-01-23T05:47:53;59.33;;;22.83;;
15526;SDS011;7865;50.918;4.510;2023-01-23T05:52:56;48.37;;;21.70;;
15526;SDS011;7865;50.918;4.510;2023-01-23T05:57:58;61.93;;;22.77;;
15526;SDS011;7865;50.918;4.510;2023-01-23T06:03:34;60.10;;;23.17;;
15526;SDS011;7865;50.918;4.510;2023-01-23T06:08:57;57.33;;;19.73;;
15526;SDS011;7865;50.918;4.510;2023-01-23T06:14:00;60.53;;;22.27;;
15526;SDS011;7865;50.918;4.510;2023-01-23T06:19:02;49.90;;;20.73;;
15526;SDS011;7865;50.918;4.510;2023-01-23T06:24:07;51.77;;;20.87;;
15526;SDS011;7865;50.918;4.510;2023-01-23T06:29:09;56.83;;;20.43;;
15526;SDS011;7865;50.918;4.510;2023-01-23T06:34:12;50.17;;;20.40;;
15526;SDS011;7865;50.918;4.510;2023-01-23T06:39:26;51.87;;;20.47;;
15526;SDS011;7865;50.918;4.510;2023-01-23T06:44:28;56.17;;;22.70;;
15526;SDS011;7865;50.918;4.510;2023-01-23T06:49:30;46.63;;;20.70;;
15526;SDS011;7865;50.918;4.510;2023-01-23T06:54:32;50.33;;;20.00;;
15526;SDS011;7865;50.918;4.510;2023-01-23T06:59:37;61.03;;;20.63;;
15526;SDS011;7865;50.918;4.510;2023-01-23T07:04:43;61.90;;;22.50;;
15526;SDS011;7865;50.918;4.510;2023-01-23T07:09:45;54.67;;;20.67;;
15526;SDS011;7865;50.918;4.510;2023-01-23T07:14:57;69.13;;;24.30;;
15526;SDS011;7865;50.918;4.510;2023-01-23T07:20:09;54.83;;;22.63;;
15526;SDS011;7865;50.918;4.510;2023-01-23T07:25:19;59.80;;;22.03;;
15526;SDS011;7865;50.918;4.510;2023-01-23T07:30:21;54.20;;;22.27;;
15526;SDS011;7865;50.918;4.510;2023-01-23T07:35:24;57.27;;;21.77;;
15526;SDS011;7865;50.918;4.510;2023-01-23T07:40:26;60.80;;;20.63;;
15526;SDS011;7865;50.918;4.510;2023-01-23T07:45:28;48.57;;;21.67;;
15526;SDS011;7865;50.918;4.510;2023-01-23T07:50:30;48.93;;;19.57;;
15526;SDS011;7865;50.918;4.510;2023-01-23T07:55:32;55.77;;;22.73;;
15526;SDS011;7865;50.918;4.510;2023-01-23T08:00:34;55.33;;;22.90;;
15526;SDS011;7865;50.918;4.510;2023-01-23T08:05:36;60.60;;;23.60;;
15526;SDS011;7865;50.918;4.510;2023-01-23T08:10:38;55.73;;;21.17;;
15526;SDS011;7865;50.918;4.510;2023-01-23T08:15:40;50.07;;;21.23;;
15526;SDS011;7865;50.918;4.510;2023-01-23T08:20:42;54.57;;;23.80;;
15526;SDS011;7865;50.918;4.510;2023-01-23T08:25:44;50.83;;;21.97;;
15526;SDS011;7865;50.918;4.510;2023-01-23T08:30:46;54.63;;;23.80;;
15526;SDS011;7865;50.918;4.510;2023-01-23T08:35:49;59.13;;;24.37;;
15526;SDS011;7865;50.918;4.510;2023-01-23T08:40:52;53.43;;;23.90;;
15526;SDS011;7865;50.918;4.510;2023-01-23T08:45:56;62.83;;;26.13;;
15526;SDS011;7865;50.918;4.510;2023-01-23T08:51:00;60.33;;;25.90;;
15526;SDS011;7865;50.918;4.510;2023-01-23T08:56:07;62.73;;;24.13;;
15526;SDS011;7865;50.918;4.510;2023-01-23T09:01:18;51.07;;;22.10;;
15526;SDS011;7865;50.918;4.510;2023-01-23T09:06:22;58.80;;;25.13;;
15526;SDS011;7865;50.918;4.510;2023-01-23T09:11:24;55.87;;;23.87;;
15526;SDS011;7865;50.918;4.510;2023-01-23T09:16:26;56.20;;;25.03;;
15526;SDS011;7865;50.918;4.510;2023-01-23T09:21:28;56.37;;;23.33;;
15526;SDS011;7865;50.918;4.510;2023-01-23T09:26:29;58.73;;;25.90;;
15526;SDS011;7865;50.918;4.510;2023-01-23T09:31:31;54.17;;;22.70;;
15526;SDS011;7865;50.918;4.510;2023-01-23T09:36:33;56.63;;;23.13;;
15526;SDS011;7865;50.918;4.510;2023-01-23T09:41:43;65.40;;;23.00;;
15526;SDS011;7865;50.918;4.510;2023-01-23T09:46:54;51.83;;;23.67;;
15526;SDS011;7865;50.918;4.510;2023-01-23T09:52:04;59.47;;;24.30;;
15526;SDS011;7865;50.918;4.510;2023-01-23T10:02:17;61.57;;;25.27;;
15526;SDS011;7865;50.918;4.510;2023-01-23T10:17:58;51.13;;;22.77;;
15526;SDS011;7865;50.918;4.510;2023-01-23T10:28:31;47.13;;;23.07;;
15526;SDS011;7865;50.918;4.510;2023-01-23T10:34:03;54.60;;;24.40;;
15526;SDS011;7865;50.918;4.510;2023-01-23T10:39:15;51.80;;;21.50;;
15526;SDS011;7865;50.918;4.510;2023-01-23T10:44:22;51.93;;;23.33;;
15526;SDS011;7865;50.918;4.510;2023-01-23T10:49:31;58.63;;;32.25;;
15526;SDS011;7865;50.918;4.510;2023-01-23T10:54:44;51.13;;;24.90;;
15526;SDS011;7865;50.918;4.510;2023-01-23T11:05:49;53.13;;;23.77;;
15526;SDS011;7865;50.918;4.510;2023-01-23T11:10:55;59.87;;;23.40;;
15526;SDS011;7865;50.918;4.510;2023-01-23T11:16:32;50.60;;;22.83;;
15526;SDS011;7865;50.918;4.510;2023-01-23T11:21:35;48.97;;;22.77;;
15526;SDS011;7865;50.918;4.510;2023-01-23T11:26:58;50.57;;;23.40;;
15526;SDS011;7865;50.918;4.510;2023-01-23T11:32:07;51.87;;;24.40;;
15526;SDS011;7865;50.918;4.510;2023-01-23T11:42:15;54.40;;;24.60;;
15526;SDS011;7865;50.918;4.510;2023-01-23T12:03:58;51.63;;;22.10;;
15526;SDS011;7865;50.918;4.510;2023-01-23T12:09:10;49.07;;;25.27;;
15526;SDS011;7865;50.918;4.510;2023-01-23T12:19:41;46.53;;;23.70;;
15526;SDS011;7865;50.918;4.510;2023-01-23T12:25:05;51.40;;;23.97;;
15526;SDS011;7865;50.918;4.510;2023-01-23T12:30:25;52.07;;;23.20;;
15526;SDS011;7865;50.918;4.510;2023-01-23T12:41:12;49.10;;;23.27;;
15526;SDS011;7865;50.918;4.510;2023-01-23T12:51:44;40.23;;;18.97;;
15526;SDS011;7865;50.918;4.510;2023-01-23T12:56:50;41.70;;;20.07;;
15526;SDS011;7865;50.918;4.510;2023-01-23T13:12:42;42.50;;;20.83;;
15526;SDS011;7865;50.918;4.510;2023-01-23T13:28:40;39.33;;;19.07;;
15526;SDS011;7865;50.918;4.510;2023-01-23T13:33:47;37.60;;;18.33;;
15526;SDS011;7865;50.918;4.510;2023-01-23T13:49:45;40.53;;;19.57;;
15526;SDS011;7865;50.918;4.510;2023-01-23T13:55:17;44.37;;;20.60;;
15526;SDS011;7865;50.918;4.510;2023-01-23T14:01:09;40.00;;;21.00;;
15526;SDS011;7865;50.918;4.510;2023-01-23T14:06:47;44.43;;;21.70;;
15526;SDS011;7865;50.918;4.510;2023-01-23T14:12:03;43.63;;;21.30;;
15526;SDS011;7865;50.918;4.510;2023-01-23T14:17:20;38.80;;;20.03;;
15526;SDS011;7865;50.918;4.510;2023-01-23T14:22:37;41.07;;;19.70;;
15526;SDS011;7865;50.918;4.510;2023-01-23T14:27:40;42.30;;;19.17;;
15526;SDS011;7865;50.918;4.510;2023-01-23T14:32:54;44.07;;;21.40;;
15526;SDS011;7865;50.918;4.510;2023-01-23T14:37:57;47.47;;;24.07;;
15526;SDS011;7865;50.918;4.510;2023-01-23T14:43:02;49.83;;;21.47;;
15526;SDS011;7865;50.918;4.510;2023-01-23T14:48:12;43.07;;;22.00;;
15526;SDS011;7865;50.918;4.510;2023-01-23T14:53:16;48.73;;;23.60;;
15526;SDS011;7865;50.918;4.510;2023-01-23T14:58:21;46.33;;;22.37;;
15526;SDS011;7865;50.918;4.510;2023-01-23T15:03:42;46.53;;;22.20;;
15526;SDS011;7865;50.918;4.510;2023-01-23T15:08:45;40.97;;;22.03;;
15526;SDS011;7865;50.918;4.510;2023-01-23T15:13:48;45.17;;;21.60;;
15526;SDS011;7865;50.918;4.510;2023-01-23T15:18:54;46.07;;;20.70;;
15526;SDS011;7865;50.918;4.510;2023-01-23T15:29:16;38.20;;;18.43;;
15526;SDS011;7865;50.918;4.510;2023-01-23T15:39:25;28.03;;;15.30;;
15526;SDS011;7865;50.918;4.510;2023-01-23T15:44:31;26.73;;;14.97;;
15526;SDS011;7865;50.918;4.510;2023-01-23T15:49:34;28.20;;;15.43;;
15526;SDS011;7865;50.918;4.510;2023-01-23T15:54:37;31.07;;;17.23;;
15526;SDS011;7865;50.918;4.510;2023-01-23T15:59:40;29.97;;;16.77;;
15526;SDS011;7865;50.918;4.510;2023-01-23T16:04:43;30.73;;;17.20;;
15526;SDS011;7865;50.918;4.510;2023-01-23T16:09:46;33.93;;;18.53;;
15526;SDS011;7865;50.918;4.510;2023-01-23T16:14:50;27.30;;;16.17;;
15526;SDS011;7865;50.918;4.510;2023-01-23T16:19:52;27.73;;;16.43;;
15526;SDS011;7865;50.918;4.510;2023-01-23T16:24:55;28.33;;;16.17;;
15526;SDS011;7865;50.918;4.510;2023-01-23T16:29:58;30.17;;;16.93;;
15526;SDS011;7865;50.918;4.510;2023-01-23T16:35:00;28.13;;;17.10;;
15526;SDS011;7865;50.918;4.510;2023-01-23T16:40:02;28.33;;;16.90;;
15526;SDS011;7865;50.918;4.510;2023-01-23T16:45:12;28.10;;;16.27;;
15526;SDS011;7865;50.918;4.510;2023-01-23T16:50:19;31.73;;;18.00;;
15526;SDS011;7865;50.918;4.510;2023-01-23T16:55:26;29.90;;;18.53;;
15526;SDS011;7865;50.918;4.510;2023-01-23T17:00:33;32.17;;;17.30;;
15526;SDS011;7865;50.918;4.510;2023-01-23T17:05:36;32.70;;;18.87;;
15526;SDS011;7865;50.918;4.510;2023-01-23T17:10:37;32.57;;;17.77;;
15526;SDS011;7865;50.918;4.510;2023-01-23T17:15:47;28.50;;;18.20;;
15526;SDS011;7865;50.918;4.510;2023-01-23T17:20:52;32.67;;;17.67;;
15526;SDS011;7865;50.918;4.510;2023-01-23T17:25:57;30.57;;;18.70;;
15526;SDS011;7865;50.918;4.510;2023-01-23T17:31:02;29.13;;;18.70;;
15526;SDS011;7865;50.918;4.510;2023-01-23T17:36:05;32.97;;;18.17;;
15526;SDS011;7865;50.918;4.510;2023-01-23T17:41:11;32.80;;;18.93;;
15526;SDS011;7865;50.918;4.510;2023-01-23T17:46:21;32.93;;;18.53;;
15526;SDS011;7865;50.918;4.510;2023-01-23T17:51:27;31.63;;;19.07;;
15526;SDS011;7865;50.918;4.510;2023-01-23T17:56:31;29.27;;;16.97;;
15526;SDS011;7865;50.918;4.510;2023-01-23T18:01:33;29.20;;;18.73;;
15526;SDS011;7865;50.918;4.510;2023-01-23T18:06:34;32.63;;;19.17;;
15526;SDS011;7865;50.918;4.510;2023-01-23T18:11:37;33.73;;;19.60;;
15526;SDS011;7865;50.918;4.510;2023-01-23T18:16:41;34.47;;;19.13;;
15526;SDS011;7865;50.918;4.510;2023-01-23T18:21:47;29.17;;;17.50;;
15526;SDS011;7865;50.918;4.510;2023-01-23T18:27:03;32.07;;;18.50;;
15526;SDS011;7865;50.918;4.510;2023-01-23T18:32:27;30.03;;;18.10;;
15526;SDS011;7865;50.918;4.510;2023-01-23T18:42:59;32.70;;;18.37;;
15526;SDS011;7865;50.918;4.510;2023-01-23T18:48:13;33.13;;;17.87;;
15526;SDS011;7865;50.918;4.510;2023-01-23T18:53:38;32.30;;;18.60;;
15526;SDS011;7865;50.918;4.510;2023-01-23T19:04:13;29.27;;;17.30;;
15526;SDS011;7865;50.918;4.510;2023-01-23T19:09:17;29.93;;;16.37;;
15526;SDS011;7865;50.918;4.510;2023-01-23T19:14:29;32.33;;;18.43;;
15526;SDS011;7865;50.918;4.510;2023-01-23T19:20:02;33.20;;;18.27;;
15526;SDS011;7865;50.918;4.510;2023-01-23T19:25:13;29.07;;;16.93;;
15526;SDS011;7865;50.918;4.510;2023-01-23T19:30:19;28.57;;;17.53;;
15526;SDS011;7865;50.918;4.510;2023-01-23T19:35:22;31.13;;;17.57;;
15526;SDS011;7865;50.918;4.510;2023-01-23T19:40:24;30.70;;;17.03;;
15526;SDS011;7865;50.918;4.510;2023-01-23T19:45:27;29.70;;;16.03;;
15526;SDS011;7865;50.918;4.510;2023-01-23T19:50:29;29.50;;;16.67;;
15526;SDS011;7865;50.918;4.510;2023-01-23T19:55:32;29.97;;;17.83;;
15526;SDS011;7865;50.918;4.510;2023-01-23T20:00:35;32.47;;;19.23;;
15526;SDS011;7865;50.918;4.510;2023-01-23T20:05:37;32.27;;;19.27;;
15526;SDS011;7865;50.918;4.510;2023-01-23T20:10:39;32.57;;;18.70;;
15526;SDS011;7865;50.918;4.510;2023-01-23T20:15:41;36.60;;;20.03;;
15526;SDS011;7865;50.918;4.510;2023-01-23T20:20:43;36.47;;;20.07;;
15526;SDS011;7865;50.918;4.510;2023-01-23T20:25:44;36.27;;;20.53;;
15526;SDS011;7865;50.918;4.510;2023-01-23T20:30:46;37.77;;;20.60;;
15526;SDS011;7865;50.918;4.510;2023-01-23T20:35:49;42.40;;;21.90;;
15526;SDS011;7865;50.918;4.510;2023-01-23T20:40:53;38.70;;;22.40;;
15526;SDS011;7865;50.918;4.510;2023-01-23T20:45:55;43.07;;;23.53;;
15526;SDS011;7865;50.918;4.510;2023-01-23T20:50:57;40.10;;;22.37;;
15526;SDS011;7865;50.918;4.510;2023-01-23T21:01:04;40.60;;;22.40;;
15526;SDS011;7865;50.918;4.510;2023-01-23T21:06:07;41.27;;;22.57;;
15526;SDS011;7865;50.918;4.510;2023-01-23T21:11:10;38.03;;;22.17;;
15526;SDS011;7865;50.918;4.510;2023-01-23T21:16:19;40.03;;;22.23;;
15526;SDS011;7865;50.918;4.510;2023-01-23T21:21:21;43.90;;;22.57;;
15526;SDS011;7865;50.918;4.510;2023-01-23T21:26:24;36.63;;;21.70;;
15526;SDS011;7865;50.918;4.510;2023-01-23T21:31:28;38.50;;;22.10;;
15526;SDS011;7865;50.918;4.510;2023-01-23T21:36:35;35.70;;;21.43;;
15526;SDS011;7865;50.918;4.510;2023-01-23T21:41:37;41.60;;;24.30;;
15526;SDS011;7865;50.918;4.510;2023-01-23T21:46:40;44.83;;;23.73;;
15526;SDS011;7865;50.918;4.510;2023-01-23T21:51:42;43.57;;;24.93;;
15526;SDS011;7865;50.918;4.510;2023-01-23T21:56:45;41.20;;;20.07;;
15526;SDS011;7865;50.918;4.510;2023-01-23T22:01:47;43.97;;;24.00;;
15526;SDS011;7865;50.918;4.510;2023-01-23T22:06:50;45.77;;;26.13;;
15526;SDS011;7865;50.918;4.510;2023-01-23T22:11:56;44.13;;;24.90;;
15526;SDS011;7865;50.918;4.510;2023-01-23T22:16:57;44.67;;;24.40;;
15526;SDS011;7865;50.918;4.510;2023-01-23T22:21:59;47.50;;;25.87;;
15526;SDS011;7865;50.918;4.510;2023-01-23T22:27:01;48.83;;;26.47;;
15526;SDS011;7865;50.918;4.510;2023-01-23T22:32:04;44.33;;;24.57;;
15526;SDS011;7865;50.918;4.510;2023-01-23T22:37:06;47.53;;;26.57;;
15526;SDS011;7865;50.918;4.510;2023-01-23T22:42:08;47.50;;;26.30;;
15526;SDS011;7865;50.918;4.510;2023-01-23T22:47:10;53.13;;;27.43;;
15526;SDS011;7865;50.918;4.510;2023-01-23T22:52:13;45.53;;;25.60;;
15526;SDS011;7865;50.918;4.510;2023-01-23T22:57:15;48.93;;;27.67;;
15526;SDS011;7865;50.918;4.510;2023-01-23T23:02:17;40.00;;;22.67;;
15526;SDS011;7865;50.918;4.510;2023-01-23T23:07:19;45.17;;;25.80;;
15526;SDS011;7865;50.918;4.510;2023-01-23T23:12:21;46.80;;;27.60;;
15526;SDS011;7865;50.918;4.510;2023-01-23T23:17:23;43.30;;;24.20;;
15526;SDS011;7865;50.918;4.510;2023-01-23T23:22:25;49.10;;;24.00;;
15526;SDS011;7865;50.918;4.510;2023-01-23T23:27:28;43.60;;;25.53;;
15526;SDS011;7865;50.918;4.510;2023-01-23T23:32:29;42.43;;;24.50;;
15526;SDS011;7865;50.918;4.510;2023-01-23T23:37:31;41.00;;;23.80;;
15526;SDS011;7865;50.918;4.510;2023-01-23T23:42:33;40.70;;;22.57;;
15526;SDS011;7865;50.918;4.510;2023-01-23T23:47:35;39.57;;;23.20;;
15526;SDS011;7865;50.918;4.510;2023-01-23T23:52:37;42.67;;;23.73;;
15526;SDS011;7865;50.918;4.510;2023-01-23T23:57:39;44.87;;;24.37;;
